createdAt,value
2024-02-11T00:00:48.343Z,4.20
2024-02-11T00:03:18.229Z,4.10
2024-02-11T00:05:46.623Z,4.00
2024-02-11T00:08:14.880Z,4.00
2024-02-11T00:10:43.189Z,3.80
2024-02-11T00:13:12.085Z,3.80
2024-02-11T00:15:41.944Z,3.70
2024-02-11T00:18:10.153Z,3.70
2024-02-11T00:20:39.751Z,3.50
2024-02-11T00:23:08.228Z,3.50
2024-02-11T00:25:36.466Z,3.50
2024-02-11T00:28:04.756Z,3.50
2024-02-11T00:30:33.001Z,3.50
2024-02-11T00:33:01.402Z,3.50
2024-02-11T00:35:29.758Z,3.50
2024-02-11T00:38:01.434Z,3.50
2024-02-11T00:40:30.238Z,3.50
2024-02-11T00:42:59.831Z,3.50
2024-02-11T00:45:30.673Z,3.60
2024-02-11T00:48:01.184Z,3.60
2024-02-11T00:50:35.359Z,3.60
2024-02-11T00:53:06.147Z,3.50
2024-02-11T00:55:37.052Z,3.50
2024-02-11T00:58:05.764Z,3.40
2024-02-11T01:00:34.465Z,3.40
2024-02-11T01:03:04.596Z,3.50
2024-02-11T01:05:32.831Z,3.50
2024-02-11T01:08:02.962Z,3.50
2024-02-11T01:10:33.607Z,3.50
2024-02-11T01:13:02.144Z,3.50
2024-02-11T01:15:30.365Z,3.50
2024-02-11T01:17:58.705Z,3.50
2024-02-11T01:20:27.134Z,3.50
2024-02-11T01:22:56.150Z,3.50
2024-02-11T01:25:24.511Z,3.50
2024-02-11T01:27:54.057Z,3.50
2024-02-11T01:30:24.242Z,3.60
2024-02-11T01:32:55.082Z,3.60
2024-02-11T01:35:23.457Z,3.60
2024-02-11T01:37:51.798Z,3.70
2024-02-11T01:40:20.954Z,3.70
2024-02-11T01:42:49.730Z,3.70
2024-02-11T01:45:19.601Z,3.70
2024-02-11T01:47:48.575Z,3.70
2024-02-11T01:50:18.286Z,3.80
2024-02-11T01:52:47.665Z,3.80
2024-02-11T01:55:18.494Z,3.80
2024-02-11T01:57:47.574Z,3.90
2024-02-11T02:00:17.273Z,3.90
2024-02-11T02:02:48.398Z,3.90
2024-02-11T02:05:16.952Z,3.90
2024-02-11T02:07:45.362Z,3.90
2024-02-11T02:10:13.976Z,3.90
2024-02-11T02:12:43.262Z,3.90
2024-02-11T02:15:11.873Z,4.00
2024-02-11T02:17:40.424Z,4.00
2024-02-11T02:20:10.845Z,4.10
2024-02-11T02:22:42.796Z,4.20
2024-02-11T02:25:11.176Z,4.20
2024-02-11T02:27:39.321Z,4.20
2024-02-11T02:30:08.521Z,4.30
2024-02-11T02:32:37.325Z,4.30
2024-02-11T02:35:06.265Z,4.40
2024-02-11T02:37:34.817Z,4.50
2024-02-11T02:40:04.750Z,4.50
2024-02-11T02:42:32.926Z,4.60
2024-02-11T02:45:01.276Z,4.80
2024-02-11T02:47:29.903Z,4.90
2024-02-11T02:49:58.177Z,5.00
2024-02-11T02:52:27.249Z,5.40
2024-02-11T02:54:56.315Z,5.60
2024-02-11T02:57:25.846Z,5.80
2024-02-11T02:59:55.500Z,6.10
2024-02-11T03:02:23.941Z,6.20
2024-02-11T03:04:52.916Z,6.50
2024-02-11T03:07:21.184Z,6.70
2024-02-11T03:09:49.372Z,6.90
2024-02-11T03:12:17.690Z,7.10
2024-02-11T03:14:47.278Z,7.30
2024-02-11T03:17:15.516Z,7.50
2024-02-11T03:19:44.957Z,7.60
2024-02-11T03:22:14.249Z,7.70
2024-02-11T03:24:42.746Z,7.80
2024-02-11T03:27:10.936Z,7.90
2024-02-11T03:29:39.179Z,8.00
2024-02-11T03:32:08.950Z,8.10
2024-02-11T03:34:37.214Z,8.30
2024-02-11T03:37:06.187Z,8.40
2024-02-11T03:39:35.134Z,8.50
2024-02-11T03:42:03.674Z,8.50
2024-02-11T03:44:31.856Z,8.60
2024-02-11T03:47:03.766Z,8.60
2024-02-11T03:49:33.637Z,8.80
2024-02-11T03:52:01.842Z,8.80
2024-02-11T03:54:30.159Z,8.80
2024-02-11T03:56:58.342Z,8.90
2024-02-11T03:59:26.519Z,8.90
2024-02-11T04:01:54.876Z,8.90
2024-02-11T04:04:23.152Z,8.90
2024-02-11T04:06:55.567Z,8.90
2024-02-11T04:09:29.657Z,8.90
2024-02-11T04:11:58.968Z,8.80
2024-02-11T04:14:27.250Z,8.80
2024-02-11T04:16:56.890Z,8.80
2024-02-11T04:19:25.584Z,8.90
2024-02-11T04:21:55.106Z,8.90
2024-02-11T04:24:24.431Z,8.90
2024-02-11T04:26:54.768Z,9.00
2024-02-11T04:29:24.944Z,9.00
2024-02-11T04:31:54.451Z,9.00
2024-02-11T04:34:23.314Z,9.00
2024-02-11T04:36:51.762Z,8.90
2024-02-11T04:39:21.295Z,8.90
2024-02-11T04:41:49.488Z,8.90
2024-02-11T04:44:17.742Z,8.90
2024-02-11T04:46:45.987Z,8.90
2024-02-11T04:49:14.344Z,8.90
2024-02-11T04:51:42.547Z,8.90
2024-02-11T04:54:10.734Z,8.90
2024-02-11T04:56:40.876Z,9.00
2024-02-11T04:59:09.296Z,9.00
2024-02-11T05:01:37.843Z,9.00
2024-02-11T05:04:06.361Z,9.00
2024-02-11T05:06:35.051Z,8.90
2024-02-11T05:09:05.123Z,8.90
2024-02-11T05:11:34.079Z,8.90
2024-02-11T05:14:03.841Z,8.90
2024-02-11T05:16:32.283Z,8.80
2024-02-11T05:19:00.721Z,8.80
2024-02-11T05:21:29.064Z,8.70
2024-02-11T05:23:57.233Z,8.70
2024-02-11T05:26:25.712Z,8.70
2024-02-11T05:28:53.981Z,8.70
2024-02-11T05:31:23.488Z,8.60
2024-02-11T05:33:52.541Z,8.60
2024-02-11T05:36:22.207Z,8.60
2024-02-11T05:38:50.429Z,8.50
2024-02-11T05:41:18.876Z,8.50
2024-02-11T05:43:47.734Z,8.40
2024-02-11T05:46:16.088Z,8.40
2024-02-11T05:48:45.664Z,8.40
2024-02-11T05:51:14.964Z,8.40
2024-02-11T05:53:43.402Z,8.30
2024-02-11T05:56:13.518Z,8.30
2024-02-11T05:58:41.752Z,8.20
2024-02-11T06:01:10.817Z,8.20
2024-02-11T06:03:41.282Z,8.20
2024-02-11T06:06:10.974Z,8.20
2024-02-11T06:08:39.322Z,8.10
2024-02-11T06:11:08.546Z,8.10
2024-02-11T06:13:37.015Z,8.10
2024-02-11T06:16:07.349Z,8.00
2024-02-11T06:18:35.753Z,8.00
2024-02-11T06:21:04.013Z,8.00
2024-02-11T06:23:34.659Z,8.00
2024-02-11T06:26:04.183Z,8.00
2024-02-11T06:28:32.590Z,8.00
2024-02-11T06:31:01.335Z,8.00
2024-02-11T06:33:29.569Z,7.90
2024-02-11T06:35:57.814Z,7.90
2024-02-11T06:38:26.133Z,7.90
2024-02-11T06:40:56.276Z,7.90
2024-02-11T06:43:25.506Z,7.90
2024-02-11T06:45:53.670Z,7.90
2024-02-11T06:48:24.823Z,7.80
2024-02-11T06:50:53.407Z,7.80
2024-02-11T06:53:21.742Z,7.80
2024-02-11T06:55:50.518Z,7.80
2024-02-11T06:58:20.055Z,7.80
2024-02-11T07:00:49.249Z,7.80
2024-02-11T07:03:19.041Z,7.80
2024-02-11T07:05:47.559Z,7.80
2024-02-11T07:08:16.998Z,7.80
2024-02-11T07:10:45.495Z,7.80
2024-02-11T07:13:13.681Z,7.80
2024-02-11T07:15:43.391Z,7.80
2024-02-11T07:18:13.194Z,7.80
2024-02-11T07:20:41.700Z,7.90
2024-02-11T07:23:10.262Z,7.90
2024-02-11T07:25:39.000Z,7.90
2024-02-11T07:28:07.391Z,7.90
2024-02-11T07:30:35.742Z,7.90
2024-02-11T07:33:05.828Z,7.90
2024-02-11T07:35:34.235Z,7.90
2024-02-11T07:38:03.680Z,7.90
2024-02-11T07:40:32.602Z,8.00
2024-02-11T07:43:00.805Z,8.00
2024-02-11T07:45:28.987Z,8.00
2024-02-11T07:47:57.399Z,8.10
2024-02-11T07:50:27.127Z,8.10
2024-02-11T07:52:56.732Z,8.10
2024-02-11T07:55:24.900Z,8.20
2024-02-11T07:57:53.430Z,8.20
2024-02-11T08:00:22.346Z,8.20
2024-02-11T08:02:52.579Z,8.30
2024-02-11T08:05:23.788Z,8.30
2024-02-11T08:07:54.480Z,8.40
2024-02-11T08:10:24.046Z,8.40
2024-02-11T08:12:52.603Z,8.40
2024-02-11T08:15:21.060Z,8.50
2024-02-11T08:17:49.320Z,8.50
2024-02-11T08:20:20.248Z,8.50
2024-02-11T08:22:49.016Z,8.60
2024-02-11T08:25:19.001Z,8.60
2024-02-11T08:27:47.395Z,8.70
2024-02-11T08:30:15.650Z,8.70
2024-02-11T08:32:45.334Z,8.80
2024-02-11T08:35:14.054Z,8.80
2024-02-11T08:37:43.243Z,8.80
2024-02-11T08:40:13.366Z,8.90
2024-02-11T08:42:43.190Z,8.90
2024-02-11T08:45:12.609Z,8.90
2024-02-11T08:47:41.390Z,9.00
2024-02-11T08:50:12.207Z,9.00
2024-02-11T08:52:41.398Z,9.00
2024-02-11T08:55:10.542Z,9.10
2024-02-11T08:57:38.794Z,9.10
2024-02-11T09:00:14.229Z,9.20
2024-02-11T09:02:43.530Z,9.20
2024-02-11T09:05:12.538Z,9.20
2024-02-11T09:07:43.788Z,9.20
2024-02-11T09:10:14.816Z,9.20
2024-02-11T09:12:43.164Z,9.20
2024-02-11T09:15:17.912Z,9.10
2024-02-11T09:17:47.252Z,9.10
2024-02-11T09:20:15.896Z,9.10
2024-02-11T09:22:44.569Z,9.10
2024-02-11T09:25:15.580Z,9.10
2024-02-11T09:27:44.877Z,9.10
2024-02-11T09:30:17.297Z,9.00
2024-02-11T09:32:48.110Z,9.00
2024-02-11T09:35:18.529Z,8.90
2024-02-11T09:37:46.889Z,8.90
2024-02-11T09:40:16.761Z,8.90
2024-02-11T09:42:45.881Z,8.90
2024-02-11T09:45:17.670Z,8.90
2024-02-11T09:47:47.944Z,8.80
2024-02-11T09:50:16.703Z,8.90
2024-02-11T09:52:45.128Z,8.90
2024-02-11T09:55:13.398Z,8.80
2024-02-11T09:57:41.749Z,8.80
2024-02-11T10:00:10.775Z,8.90
2024-02-11T10:02:42.194Z,8.90
2024-02-11T10:05:12.688Z,8.90
2024-02-11T10:07:45.342Z,8.90
2024-02-11T10:10:14.693Z,9.00
2024-02-11T10:12:43.246Z,9.00
2024-02-11T10:15:12.904Z,9.00
2024-02-11T10:17:43.461Z,9.00
2024-02-11T10:20:13.812Z,9.10
2024-02-11T10:22:42.629Z,9.10
2024-02-11T10:25:12.949Z,9.10
2024-02-11T10:27:43.300Z,9.10
2024-02-11T10:30:12.553Z,9.20
2024-02-11T10:32:41.406Z,9.20
2024-02-11T10:38:06.881Z,9.30
2024-02-11T10:40:36.997Z,9.30
2024-02-11T10:43:06.529Z,9.40
2024-02-11T10:45:36.556Z,9.40
2024-02-11T10:48:05.653Z,9.50
2024-02-11T10:50:35.402Z,9.50
2024-02-11T10:53:04.454Z,9.60
2024-02-11T10:55:33.792Z,9.70
2024-02-11T10:58:04.298Z,9.80
2024-02-11T11:00:33.824Z,9.80
2024-02-11T11:03:03.807Z,9.80
2024-02-11T11:05:34.656Z,9.80
2024-02-11T11:08:05.440Z,9.90
2024-02-11T11:10:36.753Z,10.00
2024-02-11T11:13:05.044Z,10.00
2024-02-11T11:15:34.052Z,10.00
2024-02-11T11:18:03.319Z,10.10
2024-02-11T11:20:34.504Z,10.20
2024-02-11T11:23:04.537Z,10.30
2024-02-11T11:25:34.267Z,10.40
2024-02-11T11:28:13.282Z,10.40
2024-02-11T11:30:41.474Z,10.50
2024-02-11T11:33:10.608Z,10.50
2024-02-11T11:35:38.944Z,10.50
2024-02-11T11:38:08.710Z,10.60
2024-02-11T11:40:38.854Z,10.60
2024-02-11T11:43:14.590Z,10.50
2024-02-11T11:45:51.081Z,10.50
2024-02-11T11:48:19.400Z,10.40
2024-02-11T11:50:54.582Z,10.20
2024-02-11T11:53:24.579Z,10.20
2024-02-11T11:55:53.212Z,10.10
2024-02-11T11:58:22.504Z,10.10
2024-02-11T12:01:00.533Z,10.00
2024-02-11T12:03:29.085Z,10.00
2024-02-11T12:05:57.942Z,10.00
2024-02-11T12:08:27.907Z,9.90
2024-02-11T12:10:56.989Z,9.90
2024-02-11T12:13:25.717Z,9.80
2024-02-11T12:15:55.789Z,9.90
2024-02-11T12:18:24.180Z,9.90
2024-02-11T12:20:53.305Z,10.00
2024-02-11T12:23:21.676Z,10.10
2024-02-11T12:25:55.105Z,10.10
2024-02-11T12:28:27.046Z,10.10
2024-02-11T12:31:06.698Z,10.10
2024-02-11T12:33:38.215Z,10.10
2024-02-11T12:36:10.432Z,10.20
2024-02-11T12:38:39.209Z,9.90
2024-02-11T12:41:10.280Z,9.80
2024-02-11T12:43:40.038Z,9.80
2024-02-11T12:46:09.683Z,9.70
2024-02-11T12:48:38.184Z,9.70
2024-02-11T12:51:06.782Z,9.70
2024-02-11T12:53:38.517Z,9.70
2024-02-11T12:56:07.798Z,9.60
2024-02-11T12:58:37.410Z,9.60
2024-02-11T13:01:05.820Z,9.50
2024-02-11T13:03:34.247Z,9.50
2024-02-11T13:06:02.580Z,9.60
2024-02-11T13:08:32.873Z,9.60
2024-02-11T13:11:01.454Z,9.70
2024-02-11T13:13:31.051Z,9.60
2024-02-11T13:16:00.842Z,9.70
2024-02-11T13:18:29.477Z,9.70
2024-02-11T13:20:58.898Z,9.70
2024-02-11T13:23:27.297Z,9.70
2024-02-11T13:25:57.057Z,9.70
2024-02-11T13:28:25.321Z,9.70
2024-02-11T13:31:06.684Z,9.70
2024-02-11T13:33:43.226Z,9.60
2024-02-11T13:36:13.998Z,9.60
2024-02-11T13:38:42.217Z,9.50
2024-02-11T13:41:10.495Z,9.50
2024-02-11T13:43:39.193Z,9.50
2024-02-11T13:46:13.597Z,9.50
2024-02-11T13:48:44.082Z,9.40
2024-02-11T13:51:12.927Z,9.40
2024-02-11T13:53:41.623Z,9.50
2024-02-11T13:56:11.113Z,9.50
2024-02-11T13:58:42.976Z,9.40
2024-02-11T14:01:12.776Z,9.40
2024-02-11T14:03:43.453Z,9.30
2024-02-11T14:06:14.660Z,9.20
2024-02-11T14:08:44.258Z,9.20
2024-02-11T14:11:12.448Z,9.20
2024-02-11T14:13:40.925Z,9.20
2024-02-11T14:16:11.523Z,9.20
2024-02-11T14:18:40.638Z,9.20
2024-02-11T14:21:10.389Z,9.20
2024-02-11T14:23:39.677Z,9.20
2024-02-11T14:26:10.400Z,9.20
2024-02-11T14:28:39.060Z,9.10
2024-02-11T14:31:07.234Z,9.10
2024-02-11T14:33:35.752Z,9.10
2024-02-11T14:36:04.463Z,9.00
2024-02-11T14:38:34.966Z,9.00
2024-02-11T14:41:04.219Z,9.00
2024-02-11T14:43:32.425Z,9.00
2024-02-11T14:46:01.739Z,9.00
2024-02-11T14:48:30.032Z,9.00
2024-02-11T14:50:58.349Z,9.00
2024-02-11T14:53:26.816Z,9.00
2024-02-11T14:55:57.160Z,9.00
2024-02-11T14:58:27.368Z,9.00
2024-02-11T15:00:57.739Z,9.00
2024-02-11T15:03:30.271Z,9.00
2024-02-11T15:05:58.672Z,8.90
2024-02-11T15:08:28.005Z,9.00
2024-02-11T15:10:57.641Z,8.90
2024-02-11T15:13:25.930Z,8.90
2024-02-11T15:15:54.430Z,8.90
2024-02-11T15:18:25.526Z,8.80
2024-02-11T15:20:53.749Z,8.80
2024-02-11T15:23:22.095Z,8.70
2024-02-11T15:25:50.496Z,8.60
2024-02-11T15:28:20.100Z,8.60
2024-02-11T15:30:48.571Z,8.60
2024-02-11T15:33:17.551Z,8.50
2024-02-11T15:35:52.531Z,8.40
2024-02-11T15:38:26.918Z,8.40
2024-02-11T15:40:56.397Z,8.30
2024-02-11T15:43:26.175Z,8.20
2024-02-11T15:45:54.384Z,8.20
2024-02-11T15:48:23.198Z,8.20
2024-02-11T15:50:51.785Z,8.10
2024-02-11T15:53:20.157Z,8.10
2024-02-11T15:55:49.495Z,8.00
2024-02-11T15:58:18.472Z,8.00
2024-02-11T16:00:49.548Z,8.00
2024-02-11T16:03:17.906Z,7.90
2024-02-11T16:05:46.656Z,7.90
2024-02-11T16:08:14.942Z,7.90
2024-02-11T16:10:43.388Z,7.90
2024-02-11T16:13:11.608Z,7.90
2024-02-11T16:15:40.046Z,7.80
2024-02-11T16:18:09.879Z,7.80
2024-02-11T16:20:38.516Z,7.70
2024-02-11T16:23:06.826Z,7.80
2024-02-11T16:25:38.778Z,7.70
2024-02-11T16:28:08.190Z,7.70
2024-02-11T16:30:37.189Z,7.70
2024-02-11T16:33:06.325Z,7.70
2024-02-11T16:35:36.212Z,7.60
2024-02-11T16:38:04.518Z,7.60
2024-02-11T16:40:32.923Z,7.60
2024-02-11T16:43:01.238Z,7.60
2024-02-11T16:45:29.433Z,7.60
2024-02-11T16:47:57.939Z,7.60
2024-02-11T16:50:26.462Z,7.60
2024-02-11T16:52:56.089Z,7.60
2024-02-11T16:55:24.239Z,7.60
2024-02-11T16:57:52.737Z,7.60
2024-02-11T17:00:21.948Z,7.50
2024-02-11T17:02:50.309Z,7.50
2024-02-11T17:05:18.878Z,7.50
2024-02-11T17:07:48.529Z,7.50
2024-02-11T17:10:19.076Z,7.50
2024-02-11T17:12:47.894Z,7.50
2024-02-11T17:15:16.262Z,7.40
2024-02-11T17:17:44.913Z,7.40
2024-02-11T17:20:20.123Z,7.50
2024-02-11T17:22:48.804Z,7.50
2024-02-11T17:25:18.838Z,7.50
2024-02-11T17:27:47.264Z,7.50
2024-02-11T17:30:15.876Z,7.50
2024-02-11T17:32:48.878Z,7.50
2024-02-11T17:35:23.454Z,7.50
2024-02-11T17:37:53.136Z,7.60
2024-02-11T17:40:23.295Z,7.60
2024-02-11T17:42:52.286Z,7.50
2024-02-11T17:45:20.722Z,7.50
2024-02-11T17:47:52.931Z,7.50
2024-02-11T17:50:21.293Z,7.50
2024-02-11T17:52:49.555Z,7.50
2024-02-11T17:55:18.257Z,7.50
2024-02-11T17:57:47.998Z,7.50
2024-02-11T18:00:19.324Z,7.50
2024-02-11T18:02:48.040Z,7.60
2024-02-11T18:05:18.698Z,7.50
2024-02-11T18:07:48.242Z,7.50
2024-02-11T18:10:16.906Z,7.50
2024-02-11T18:12:45.996Z,7.50
2024-02-11T18:15:17.125Z,7.50
2024-02-11T18:17:45.964Z,7.60
2024-02-11T18:20:16.037Z,7.50
2024-02-11T18:22:45.806Z,7.50
2024-02-11T18:25:23.924Z,7.60
2024-02-11T18:28:01.728Z,7.60
2024-02-11T18:30:31.374Z,7.60
2024-02-11T18:32:59.875Z,7.60
2024-02-11T18:35:28.637Z,7.60
2024-02-11T18:37:57.937Z,7.60
2024-02-11T18:40:26.237Z,7.60
2024-02-11T18:42:54.965Z,7.60
2024-02-11T18:45:23.431Z,7.60
2024-02-11T18:47:53.212Z,7.60
2024-02-11T18:50:22.346Z,7.60
2024-02-11T18:52:50.558Z,7.50
2024-02-11T18:55:19.540Z,7.60
2024-02-11T18:57:47.833Z,7.60
2024-02-11T19:00:17.914Z,7.60
2024-02-11T19:02:46.372Z,7.60
2024-02-11T19:05:17.692Z,7.60
2024-02-11T19:07:46.845Z,7.60
2024-02-11T19:10:18.834Z,7.60
2024-02-11T19:12:47.251Z,7.60
2024-02-11T19:15:15.510Z,7.60
2024-02-11T19:17:46.116Z,7.60
2024-02-11T19:20:14.663Z,7.60
2024-02-11T19:22:45.177Z,7.60
2024-02-11T19:25:14.709Z,7.60
2024-02-11T19:27:43.788Z,7.50
2024-02-11T19:30:12.799Z,7.50
2024-02-11T19:32:41.535Z,7.60
2024-02-11T19:35:12.753Z,7.50
2024-02-11T19:37:42.002Z,7.50
2024-02-11T19:40:13.117Z,7.50
2024-02-11T19:42:43.604Z,7.50
2024-02-11T19:45:13.677Z,7.40
2024-02-11T19:47:42.118Z,7.40
2024-02-11T19:50:11.612Z,7.40
2024-02-11T19:52:40.211Z,7.40
2024-02-11T19:55:12.068Z,7.40
2024-02-11T19:57:42.299Z,7.40
2024-02-11T20:00:13.876Z,7.40
2024-02-11T20:02:42.298Z,7.40
2024-02-11T20:05:13.794Z,7.40
2024-02-11T20:07:42.488Z,7.40
2024-02-11T20:10:11.170Z,7.40
2024-02-11T20:12:39.593Z,7.40
2024-02-11T20:15:11.515Z,7.40
2024-02-11T20:17:40.117Z,7.40
2024-02-11T20:20:14.235Z,7.40
2024-02-11T20:22:43.513Z,7.40
2024-02-11T20:25:11.718Z,7.40
2024-02-11T20:27:40.010Z,7.30
2024-02-11T20:30:11.270Z,7.30
2024-02-11T20:32:39.617Z,7.30
2024-02-11T20:35:08.429Z,7.30
2024-02-11T20:37:41.263Z,7.30
2024-02-11T20:40:13.872Z,7.30
2024-02-11T20:42:42.187Z,7.30
2024-02-11T20:45:12.339Z,7.30
2024-02-11T20:47:40.971Z,7.30
2024-02-11T20:50:09.906Z,7.30
2024-02-11T20:52:38.385Z,7.30
2024-02-11T20:55:09.293Z,7.30
2024-02-11T20:57:40.060Z,7.30
2024-02-11T21:00:13.004Z,7.30
2024-02-11T21:02:43.715Z,7.30
2024-02-11T21:05:15.933Z,7.30
2024-02-11T21:07:44.358Z,7.30
2024-02-11T21:10:13.251Z,7.30
2024-02-11T21:12:44.747Z,7.30
2024-02-11T21:15:16.098Z,7.30
2024-02-11T21:17:46.161Z,7.30
2024-02-11T21:20:14.834Z,7.20
2024-02-11T21:22:44.054Z,7.20
2024-02-11T21:25:16.433Z,7.20
2024-02-11T21:27:52.962Z,7.20
2024-02-11T21:30:28.439Z,7.20
2024-02-11T21:33:00.143Z,7.20
2024-02-11T21:35:29.051Z,7.10
2024-02-11T21:37:57.939Z,7.10
2024-02-11T21:40:26.185Z,7.10
2024-02-11T21:42:54.421Z,7.00
2024-02-11T21:45:23.068Z,7.10
2024-02-11T21:47:52.619Z,7.00
2024-02-11T21:50:22.711Z,7.00
2024-02-11T21:52:51.226Z,7.00
2024-02-11T21:55:19.722Z,7.00
2024-02-11T21:57:48.209Z,7.00
2024-02-11T22:00:16.800Z,7.00
2024-02-11T22:02:45.933Z,7.00
2024-02-11T22:05:14.850Z,7.00
2024-02-11T22:07:44.692Z,7.00
2024-02-11T22:10:13.447Z,7.00
2024-02-11T22:12:42.845Z,6.90
2024-02-11T22:15:11.185Z,6.90
2024-02-11T22:17:41.773Z,6.90
2024-02-11T22:20:11.830Z,7.00
2024-02-11T22:22:40.316Z,7.00
2024-02-11T22:25:11.371Z,7.00
2024-02-11T22:27:39.746Z,7.00
2024-02-11T22:30:08.952Z,7.00
2024-02-11T22:32:37.304Z,7.00
2024-02-11T22:35:09.525Z,7.00
2024-02-11T22:37:38.936Z,7.00
2024-02-11T22:40:10.582Z,7.00
2024-02-11T22:42:41.660Z,7.00
2024-02-11T22:45:10.240Z,7.10
2024-02-11T22:47:38.616Z,7.00
2024-02-11T22:50:09.548Z,7.00
2024-02-11T22:52:38.271Z,7.00
2024-02-11T22:55:09.035Z,7.00
2024-02-11T22:57:37.573Z,7.00
2024-02-11T23:03:23.557Z,7.00
2024-02-11T23:05:51.935Z,7.00
2024-02-11T23:08:20.259Z,7.00
2024-02-11T23:10:48.480Z,6.90
2024-02-11T23:13:19.688Z,7.00
2024-02-11T23:15:52.680Z,6.90
2024-02-11T23:18:21.329Z,6.90
2024-02-11T23:20:50.521Z,6.90
2024-02-11T23:23:18.718Z,6.90
2024-02-11T23:25:47.316Z,6.90
2024-02-11T23:28:19.860Z,6.90
2024-02-11T23:30:50.083Z,6.90
2024-02-11T23:33:18.669Z,6.90
2024-02-11T23:35:46.885Z,6.90
2024-02-11T23:38:16.888Z,6.90
2024-02-11T23:40:49.594Z,6.90
2024-02-11T23:43:18.662Z,6.90
2024-02-11T23:45:46.941Z,6.90
2024-02-11T23:48:16.574Z,6.90
2024-02-11T23:50:45.250Z,6.90
2024-02-11T23:53:17.156Z,6.90
2024-02-11T23:55:45.515Z,6.90
2024-02-11T23:58:14.182Z,6.90
